createdAt,value
2018-12-15T00:02:23.345Z,30.69
2018-12-15T00:04:49.740Z,30.83
2018-12-15T00:07:16.097Z,30.88
2018-12-15T00:09:42.430Z,30.95
2018-12-15T00:12:08.768Z,30.83
2018-12-15T00:14:35.163Z,30.69
2018-12-15T00:17:05.755Z,30.79
2018-12-15T00:19:27.892Z,30.81
2018-12-15T00:21:54.249Z,30.78
2018-12-15T00:24:20.575Z,30.79
2018-12-15T00:26:49.065Z,31.00
2018-12-15T00:29:13.351Z,30.86
2018-12-15T00:31:39.685Z,30.91
2018-12-15T00:34:05.943Z,30.97
2018-12-15T00:36:32.334Z,30.99
2018-12-15T00:38:58.662Z,31.00
2018-12-15T00:41:24.965Z,31.05
2018-12-15T00:43:51.335Z,31.08
2018-12-15T00:46:17.709Z,30.98
2018-12-15T00:48:44.032Z,31.01
2018-12-15T00:51:10.362Z,31.14
2018-12-15T00:53:36.732Z,31.14
2018-12-15T00:56:03.045Z,31.20
2018-12-15T00:58:29.407Z,31.26
2018-12-15T01:00:55.741Z,31.08
2018-12-15T01:03:22.094Z,31.27
2018-12-15T01:05:48.527Z,31.01
2018-12-15T01:08:14.865Z,30.97
2018-12-15T01:10:41.215Z,31.03
2018-12-15T01:13:07.580Z,31.01
2018-12-15T01:15:33.880Z,31.14
2018-12-15T01:18:00.232Z,31.16
2018-12-15T01:20:26.597Z,31.30
2018-12-15T01:22:52.924Z,31.27
2018-12-15T01:25:19.466Z,31.31
2018-12-15T01:27:45.804Z,31.31
2018-12-15T01:30:12.255Z,31.41
2018-12-15T01:32:38.585Z,31.18
2018-12-15T01:35:05.016Z,31.13
2018-12-15T01:37:31.406Z,31.20
2018-12-15T01:39:57.762Z,31.34
2018-12-15T01:42:24.091Z,31.40
2018-12-15T01:44:50.441Z,31.52
2018-12-15T01:47:16.770Z,31.59
2018-12-15T01:49:43.108Z,31.43
2018-12-15T01:52:09.454Z,31.43
2018-12-15T01:54:35.916Z,31.35
2018-12-15T01:57:02.217Z,31.40
2018-12-15T01:59:28.616Z,31.43
2018-12-15T02:01:54.930Z,31.51
2018-12-15T02:04:21.306Z,31.34
2018-12-15T02:06:47.731Z,31.54
2018-12-15T02:09:14.027Z,31.49
2018-12-15T02:11:40.433Z,31.47
2018-12-15T02:14:06.743Z,31.56
2018-12-15T02:16:33.130Z,31.57
2018-12-15T02:18:59.500Z,31.67
2018-12-15T02:21:25.894Z,31.51
2018-12-15T02:23:52.225Z,31.49
2018-12-15T02:26:18.551Z,31.41
2018-12-15T02:28:44.960Z,31.64
2018-12-15T02:31:11.283Z,31.57
2018-12-15T02:33:37.621Z,31.56
2018-12-15T02:36:04.012Z,31.71
2018-12-15T02:38:30.339Z,31.66
2018-12-15T02:40:56.747Z,31.62
2018-12-15T02:43:23.130Z,31.68
2018-12-15T02:45:49.532Z,31.70
2018-12-15T02:48:15.940Z,31.73
2018-12-15T02:50:42.270Z,31.70
2018-12-15T02:53:08.710Z,31.60
2018-12-15T02:55:35.065Z,31.56
2018-12-15T02:58:01.445Z,31.59
2018-12-15T03:00:27.920Z,31.58
2018-12-15T03:02:54.438Z,31.70
2018-12-15T03:05:20.853Z,31.70
2018-12-15T03:07:47.182Z,31.74
2018-12-15T03:10:13.610Z,31.82
2018-12-15T03:12:39.950Z,31.75
2018-12-15T03:15:06.354Z,31.73
2018-12-15T03:17:32.648Z,31.74
2018-12-15T03:19:59.026Z,31.88
2018-12-15T03:22:25.449Z,31.94
2018-12-15T03:24:51.853Z,31.88
2018-12-15T03:27:18.190Z,31.68
2018-12-15T03:29:44.528Z,31.77
2018-12-15T03:32:10.920Z,31.80
2018-12-15T03:34:37.343Z,31.92
2018-12-15T03:37:03.682Z,31.83
2018-12-15T03:39:30.197Z,31.88
2018-12-15T03:41:56.516Z,31.71
2018-12-15T03:44:22.833Z,31.78
2018-12-15T03:46:49.210Z,31.72
2018-12-15T03:49:15.715Z,31.68
2018-12-15T03:51:42.028Z,31.56
2018-12-15T03:54:08.354Z,31.68
2018-12-15T03:56:34.716Z,31.79
2018-12-15T03:59:01.074Z,31.62
2018-12-15T04:01:27.447Z,31.68
2018-12-15T04:03:53.797Z,31.58
2018-12-15T04:06:20.164Z,31.60
2018-12-15T04:08:46.562Z,31.69
2018-12-15T04:11:12.928Z,31.70
2018-12-15T04:13:39.224Z,31.78
2018-12-15T04:16:05.595Z,31.72
2018-12-15T04:18:31.984Z,31.83
2018-12-15T04:20:58.323Z,31.77
2018-12-15T04:23:24.730Z,31.61
2018-12-15T04:25:51.089Z,31.63
2018-12-15T04:28:17.414Z,31.82
2018-12-15T04:30:43.843Z,31.80
2018-12-15T04:33:10.217Z,31.70
2018-12-15T04:35:36.564Z,31.63
2018-12-15T04:38:02.944Z,31.53
2018-12-15T04:40:29.342Z,31.55
2018-12-15T04:42:55.839Z,31.51
2018-12-15T04:45:22.058Z,31.67
2018-12-15T04:47:48.469Z,31.53
2018-12-15T04:50:14.833Z,31.52
2018-12-15T04:52:41.175Z,31.72
2018-12-15T04:55:07.551Z,31.80
2018-12-15T04:57:33.949Z,31.86
2018-12-15T05:00:00.320Z,31.92
2018-12-15T05:02:26.678Z,31.79
2018-12-15T05:04:53.002Z,31.79
2018-12-15T05:07:19.415Z,31.84
2018-12-15T05:09:45.759Z,31.81
2018-12-15T05:12:12.138Z,31.78
2018-12-15T05:14:38.466Z,31.91
2018-12-15T05:17:04.909Z,31.97
2018-12-15T05:19:31.293Z,32.05
2018-12-15T05:21:57.696Z,32.14
2018-12-15T05:24:24.012Z,32.07
2018-12-15T05:26:50.364Z,32.06
2018-12-15T05:29:16.731Z,32.01
2018-12-15T05:31:43.121Z,32.09
2018-12-15T05:34:09.520Z,31.97
2018-12-15T05:36:35.864Z,32.20
2018-12-15T05:39:02.282Z,32.28
2018-12-15T05:41:28.612Z,32.14
2018-12-15T05:43:54.951Z,32.24
2018-12-15T05:46:21.344Z,32.14
2018-12-15T05:48:47.641Z,32.15
2018-12-15T05:51:14.011Z,32.20
2018-12-15T05:53:40.394Z,32.34
2018-12-15T05:56:06.801Z,32.28
2018-12-15T05:58:33.167Z,32.33
2018-12-15T06:00:59.510Z,32.30
2018-12-15T06:03:25.856Z,32.34
2018-12-15T06:05:52.236Z,32.51
2018-12-15T06:08:18.582Z,32.45
2018-12-15T06:10:44.920Z,32.56
2018-12-15T06:13:11.302Z,32.65
2018-12-15T06:15:37.683Z,32.58
2018-12-15T06:18:03.999Z,32.42
2018-12-15T06:20:30.385Z,32.61
2018-12-15T06:22:56.718Z,32.48
2018-12-15T06:25:23.142Z,32.65
2018-12-15T06:27:49.438Z,32.54
2018-12-15T06:30:15.832Z,32.49
2018-12-15T06:32:42.176Z,32.86
2018-12-15T06:35:08.524Z,32.70
2018-12-15T06:37:34.880Z,32.65
2018-12-15T06:40:01.238Z,32.61
2018-12-15T06:42:27.590Z,32.64
2018-12-15T06:44:53.949Z,32.61
2018-12-15T06:47:20.338Z,32.49
2018-12-15T06:49:46.740Z,32.66
2018-12-15T06:52:13.090Z,32.52
2018-12-15T06:54:39.460Z,32.52
2018-12-15T06:57:05.828Z,32.75
2018-12-15T06:59:32.201Z,32.67
2018-12-15T07:01:58.537Z,32.68
2018-12-15T07:04:24.916Z,32.68
2018-12-15T07:06:51.230Z,32.56
2018-12-15T07:09:17.559Z,32.44
2018-12-15T07:11:43.966Z,32.72
2018-12-15T07:14:10.358Z,32.65
2018-12-15T07:16:36.732Z,32.79
2018-12-15T07:19:03.123Z,32.79
2018-12-15T07:21:29.496Z,32.81
2018-12-15T07:23:55.883Z,32.74
2018-12-15T07:26:22.209Z,32.72
2018-12-15T07:28:48.612Z,32.66
2018-12-15T07:31:14.950Z,32.98
2018-12-15T07:33:41.272Z,32.75
2018-12-15T07:36:07.604Z,32.72
2018-12-15T07:38:33.936Z,32.74
2018-12-15T07:41:00.321Z,32.85
2018-12-15T07:43:26.708Z,32.75
2018-12-15T07:45:53.047Z,33.04
2018-12-15T07:48:19.488Z,33.13
2018-12-15T07:50:45.761Z,33.10
2018-12-15T07:53:12.093Z,33.01
2018-12-15T07:55:38.444Z,32.80
2018-12-15T07:58:04.820Z,32.51
2018-12-15T08:00:31.200Z,32.61
2018-12-15T08:02:57.538Z,32.62
2018-12-15T08:05:23.884Z,32.66
2018-12-15T08:07:50.322Z,32.65
2018-12-15T08:10:16.715Z,32.92
2018-12-15T08:12:43.115Z,32.81
2018-12-15T08:15:09.455Z,32.45
2018-12-15T08:17:35.842Z,32.46
2018-12-15T08:20:02.185Z,32.43
2018-12-15T08:22:28.604Z,32.30
2018-12-15T08:24:55.030Z,32.43
2018-12-15T08:27:21.431Z,32.42
2018-12-15T08:29:47.780Z,32.30
2018-12-15T08:32:14.167Z,32.18
2018-12-15T08:34:40.504Z,32.34
2018-12-15T08:37:06.887Z,32.29
2018-12-15T08:39:33.270Z,32.36
2018-12-15T08:41:59.659Z,32.43
2018-12-15T08:44:26.037Z,32.44
2018-12-15T08:46:52.370Z,32.38
2018-12-15T08:49:18.766Z,32.52
2018-12-15T08:51:45.146Z,32.36
2018-12-15T08:54:11.494Z,32.23
2018-12-15T08:56:37.851Z,32.21
2018-12-15T08:59:04.242Z,32.09
2018-12-15T09:01:30.585Z,32.11
2018-12-15T09:03:56.916Z,32.13
2018-12-15T09:06:23.273Z,31.95
2018-12-15T09:08:49.669Z,31.94
2018-12-15T09:11:15.999Z,31.84
2018-12-15T09:13:42.411Z,31.78
2018-12-15T09:16:08.703Z,31.71
2018-12-15T09:18:35.142Z,31.83
2018-12-15T09:21:01.596Z,31.87
2018-12-15T09:23:27.992Z,31.82
2018-12-15T09:25:54.361Z,31.88
2018-12-15T09:28:20.694Z,31.96
2018-12-15T09:30:47.101Z,31.82
2018-12-15T09:33:13.393Z,31.77
2018-12-15T09:35:39.782Z,31.91
2018-12-15T09:38:06.224Z,31.86
2018-12-15T09:40:32.625Z,31.75
2018-12-15T09:42:58.970Z,31.88
2018-12-15T09:45:25.298Z,31.83
2018-12-15T09:47:51.671Z,31.85
2018-12-15T09:50:18.019Z,31.90
2018-12-15T09:52:44.395Z,31.91
2018-12-15T09:55:10.770Z,31.89
2018-12-15T09:57:37.121Z,31.86
2018-12-15T10:00:03.453Z,31.83
2018-12-15T10:02:29.807Z,31.82
2018-12-15T10:04:56.169Z,31.78
2018-12-15T10:07:22.566Z,31.91
2018-12-15T10:09:48.942Z,31.91
2018-12-15T10:12:15.274Z,31.91
2018-12-15T10:14:41.778Z,32.05
2018-12-15T10:17:08.978Z,31.98
2018-12-15T10:19:34.558Z,31.98
2018-12-15T10:22:00.977Z,32.08
2018-12-15T10:24:27.316Z,31.98
2018-12-15T10:26:53.726Z,31.95
2018-12-15T10:29:20.089Z,32.06
2018-12-15T10:31:46.441Z,31.95
2018-12-15T10:34:12.813Z,31.78
2018-12-15T10:36:39.151Z,31.90
2018-12-15T10:39:05.575Z,31.98
2018-12-15T10:41:31.869Z,32.03
2018-12-15T10:43:58.293Z,31.93
2018-12-15T10:46:24.631Z,32.13
2018-12-15T10:48:50.956Z,31.93
2018-12-15T10:51:17.350Z,32.01
2018-12-15T10:53:43.691Z,32.18
2018-12-15T10:56:10.008Z,32.02
2018-12-15T10:58:36.349Z,32.01
2018-12-15T11:01:02.682Z,32.11
2018-12-15T11:03:29.018Z,32.14
2018-12-15T11:05:55.350Z,32.07
2018-12-15T11:08:21.740Z,32.18
2018-12-15T11:10:48.083Z,32.20
2018-12-15T11:13:14.463Z,32.14
2018-12-15T11:15:40.797Z,32.13
2018-12-15T11:18:07.293Z,32.13
2018-12-15T11:20:33.662Z,32.09
2018-12-15T11:22:59.970Z,32.25
2018-12-15T11:25:26.361Z,32.23
2018-12-15T11:27:52.695Z,32.23
2018-12-15T11:30:19.077Z,32.16
2018-12-15T11:32:45.407Z,32.29
2018-12-15T11:35:11.782Z,32.28
2018-12-15T11:37:38.120Z,32.04
2018-12-15T11:40:04.515Z,32.15
2018-12-15T11:42:30.858Z,32.10
2018-12-15T11:44:57.189Z,32.16
2018-12-15T11:47:23.547Z,32.20
2018-12-15T11:49:49.980Z,32.30
2018-12-15T11:52:16.342Z,32.25
2018-12-15T11:54:42.694Z,32.56
2018-12-15T11:57:09.027Z,32.43
2018-12-15T11:59:35.381Z,32.36
2018-12-15T12:02:01.797Z,32.43
2018-12-15T12:04:28.224Z,32.33
2018-12-15T12:06:54.574Z,32.27
2018-12-15T12:09:20.903Z,32.46
2018-12-15T12:11:47.223Z,32.41
2018-12-15T12:14:13.571Z,32.42
2018-12-15T12:16:39.963Z,32.43
2018-12-15T12:19:06.286Z,32.41
2018-12-15T12:21:32.642Z,32.36
2018-12-15T12:23:59.072Z,32.40
2018-12-15T12:26:25.411Z,32.47
2018-12-15T12:28:51.782Z,32.28
2018-12-15T12:31:18.236Z,32.32
2018-12-15T12:33:44.687Z,32.27
2018-12-15T12:36:11.083Z,32.20
2018-12-15T12:38:37.425Z,32.34
2018-12-15T12:41:03.815Z,32.38
2018-12-15T12:43:30.145Z,32.47
2018-12-15T12:45:56.504Z,32.37
2018-12-15T12:48:22.902Z,32.46
2018-12-15T12:50:49.213Z,32.40
2018-12-15T12:53:15.618Z,32.36
2018-12-15T12:55:41.950Z,32.36
2018-12-15T12:58:08.387Z,32.37
2018-12-15T13:00:34.784Z,32.27
2018-12-15T13:03:01.166Z,32.23
2018-12-15T13:05:27.583Z,32.22
2018-12-15T13:07:53.935Z,32.17
2018-12-15T13:10:20.286Z,32.24
2018-12-15T13:12:46.636Z,32.33
2018-12-15T13:15:12.991Z,32.27
2018-12-15T13:17:39.312Z,32.39
2018-12-15T13:20:05.709Z,32.36
2018-12-15T13:22:32.167Z,32.37
2018-12-15T13:24:58.583Z,32.23
2018-12-15T13:27:24.975Z,32.29
2018-12-15T13:29:51.306Z,32.13
2018-12-15T13:32:17.654Z,32.30
2018-12-15T13:34:44.068Z,32.26
2018-12-15T13:37:10.413Z,32.27
2018-12-15T13:39:36.737Z,32.29
2018-12-15T13:42:03.086Z,32.33
2018-12-15T13:44:29.430Z,32.38
2018-12-15T13:46:55.782Z,32.39
2018-12-15T13:49:22.175Z,32.40
2018-12-15T13:51:48.506Z,32.40
2018-12-15T13:54:14.837Z,32.38
2018-12-15T13:56:41.221Z,32.47
2018-12-15T13:59:07.530Z,32.31
2018-12-15T14:01:33.918Z,32.34
2018-12-15T14:04:00.247Z,32.36
2018-12-15T14:06:26.672Z,32.55
2018-12-15T14:08:53.095Z,32.48
2018-12-15T14:11:19.474Z,32.56
2018-12-15T14:13:45.875Z,32.78
2018-12-15T14:16:12.219Z,32.57
2018-12-15T14:18:38.598Z,32.59
2018-12-15T14:21:04.987Z,32.69
2018-12-15T14:23:31.418Z,32.54
2018-12-15T14:25:57.713Z,32.52
2018-12-15T14:28:24.037Z,32.55
2018-12-15T14:30:50.382Z,32.52
2018-12-15T14:33:16.704Z,32.62
2018-12-15T14:35:43.045Z,32.73
2018-12-15T14:38:09.447Z,32.88
2018-12-15T14:40:35.874Z,32.95
2018-12-15T14:43:02.227Z,32.88
2018-12-15T14:45:28.588Z,33.04
2018-12-15T14:47:54.956Z,32.91
2018-12-15T14:50:23.438Z,32.91
2018-12-15T14:52:47.694Z,32.94
2018-12-15T14:55:14.080Z,32.82
2018-12-15T14:57:40.415Z,32.85
2018-12-15T15:00:06.778Z,32.97
2018-12-15T15:02:33.145Z,32.88
2018-12-15T15:04:59.503Z,32.88
2018-12-15T15:07:25.860Z,32.98
2018-12-15T15:09:52.246Z,33.00
2018-12-15T15:12:18.637Z,33.01
2018-12-15T15:14:44.918Z,32.90
2018-12-15T15:17:11.247Z,32.90
2018-12-15T15:19:37.592Z,33.04
2018-12-15T15:22:03.929Z,33.04
2018-12-15T15:24:30.263Z,33.21
2018-12-15T15:26:56.632Z,32.90
2018-12-15T15:29:22.997Z,33.01
2018-12-15T15:31:49.349Z,32.97
2018-12-15T15:34:15.676Z,32.98
2018-12-15T15:36:42.061Z,33.01
2018-12-15T15:39:08.444Z,33.08
2018-12-15T15:41:34.794Z,33.15
2018-12-15T15:44:01.179Z,33.07
2018-12-15T15:46:27.514Z,33.20
2018-12-15T15:48:53.872Z,33.26
2018-12-15T15:51:20.273Z,33.25
2018-12-15T15:53:46.613Z,33.40
2018-12-15T15:56:12.967Z,33.38
2018-12-15T15:58:39.340Z,33.37
2018-12-15T16:01:06.047Z,33.25
2018-12-15T16:03:32.309Z,33.25
2018-12-15T16:05:58.659Z,33.21
2018-12-15T16:08:25.038Z,33.31
2018-12-15T16:10:51.406Z,33.37
2018-12-15T16:13:17.709Z,33.46
2018-12-15T16:15:44.046Z,33.42
2018-12-15T16:18:10.380Z,33.41
2018-12-15T16:20:43.190Z,33.46
2018-12-15T16:23:06.006Z,33.56
2018-12-15T16:25:32.402Z,33.46
2018-12-15T16:27:58.740Z,33.56
2018-12-15T16:30:25.069Z,33.60
2018-12-15T16:32:51.463Z,33.65
2018-12-15T16:35:17.762Z,33.55
2018-12-15T16:37:44.124Z,33.52
2018-12-15T16:40:10.467Z,33.58
2018-12-15T16:42:36.816Z,33.71
2018-12-15T16:45:03.180Z,33.64
2018-12-15T16:47:29.515Z,33.76
2018-12-15T16:49:55.919Z,33.85
2018-12-15T16:52:22.247Z,33.94
2018-12-15T16:54:48.590Z,33.79
2018-12-15T16:57:14.981Z,33.88
2018-12-15T16:59:41.334Z,33.94
2018-12-15T17:02:07.677Z,33.94
2018-12-15T17:04:34.013Z,34.01
2018-12-15T17:07:00.349Z,34.04
2018-12-15T17:09:26.677Z,34.01
2018-12-15T17:11:53.062Z,33.94
2018-12-15T17:14:19.619Z,33.91
2018-12-15T17:16:46.125Z,33.88
2018-12-15T17:19:12.405Z,33.85
2018-12-15T17:21:38.797Z,33.92
2018-12-15T17:24:05.154Z,33.87
2018-12-15T17:26:31.552Z,33.97
2018-12-15T17:28:58.026Z,33.93
2018-12-15T17:31:24.373Z,34.03
2018-12-15T17:33:50.703Z,33.93
2018-12-15T17:36:17.072Z,33.94
2018-12-15T17:38:43.436Z,33.94
2018-12-15T17:41:09.782Z,33.94
2018-12-15T17:43:36.163Z,33.98
2018-12-15T17:46:02.518Z,33.92
2018-12-15T17:48:28.962Z,33.90
2018-12-15T17:50:55.291Z,34.05
2018-12-15T17:53:21.611Z,33.96
2018-12-15T17:55:47.967Z,34.07
2018-12-15T17:58:14.829Z,34.03
2018-12-15T18:00:40.713Z,33.98
2018-12-15T18:03:07.075Z,33.94
2018-12-15T18:05:33.414Z,33.97
2018-12-15T18:07:59.762Z,34.10
2018-12-15T18:10:26.130Z,34.11
2018-12-15T18:12:52.471Z,34.15
2018-12-15T18:15:18.815Z,34.07
2018-12-15T18:17:45.150Z,34.05
2018-12-15T18:20:11.519Z,34.08
2018-12-15T18:22:37.894Z,34.05
2018-12-15T18:25:04.359Z,34.07
2018-12-15T18:27:30.761Z,34.04
2018-12-15T18:29:57.122Z,34.20
2018-12-15T18:32:23.454Z,34.03
2018-12-15T18:34:49.791Z,34.09
2018-12-15T18:37:16.160Z,34.18
2018-12-15T18:39:42.539Z,34.10
2018-12-15T18:42:10.992Z,34.07
2018-12-15T18:44:35.215Z,34.16
2018-12-15T18:47:01.609Z,34.34
2018-12-15T18:49:27.948Z,34.10
2018-12-15T18:51:54.288Z,34.06
2018-12-15T18:54:20.656Z,34.12
2018-12-15T18:56:47.162Z,34.15
2018-12-15T18:59:13.512Z,33.97
2018-12-15T19:01:39.851Z,34.08
2018-12-15T19:04:06.253Z,34.18
2018-12-15T19:06:32.601Z,34.04
2018-12-15T19:09:04.002Z,34.09
2018-12-15T19:11:25.328Z,34.16
2018-12-15T19:13:51.776Z,34.22
2018-12-15T19:16:18.224Z,34.31
2018-12-15T19:18:44.577Z,34.39
2018-12-15T19:21:10.918Z,34.49
2018-12-15T19:23:37.264Z,34.58
2018-12-15T19:26:03.631Z,34.50
2018-12-15T19:28:29.974Z,34.60
2018-12-15T19:30:56.360Z,34.60
2018-12-15T19:33:22.646Z,34.55
2018-12-15T19:35:48.995Z,34.70
2018-12-15T19:38:15.405Z,34.65
2018-12-15T19:40:41.761Z,34.65
2018-12-15T19:43:08.130Z,34.65
2018-12-15T19:45:34.457Z,34.69
2018-12-15T19:48:00.793Z,34.85
2018-12-15T19:50:27.159Z,34.79
2018-12-15T19:52:53.530Z,34.85
2018-12-15T19:55:20.022Z,34.92
2018-12-15T19:57:46.552Z,34.95
2018-12-15T20:00:12.890Z,35.10
2018-12-15T20:02:39.244Z,34.90
2018-12-15T20:05:05.620Z,34.97
2018-12-15T20:07:32.063Z,35.04
2018-12-15T20:09:58.363Z,34.92
2018-12-15T20:12:24.736Z,34.98
2018-12-15T20:14:51.107Z,34.88
2018-12-15T20:17:17.438Z,34.81
2018-12-15T20:19:43.921Z,34.94
2018-12-15T20:22:10.240Z,34.91
2018-12-15T20:24:36.571Z,34.87
2018-12-15T20:27:02.946Z,34.81
2018-12-15T20:29:29.299Z,34.84
2018-12-15T20:31:55.658Z,34.87
2018-12-15T20:34:22.121Z,34.86
2018-12-15T20:36:48.522Z,34.84
2018-12-15T20:39:14.858Z,34.84
2018-12-15T20:41:41.233Z,34.95
2018-12-15T20:44:07.662Z,35.03
2018-12-15T20:46:34.065Z,34.89
2018-12-15T20:49:00.403Z,34.74
2018-12-15T20:51:26.849Z,34.81
2018-12-15T20:53:53.247Z,34.83
2018-12-15T20:56:19.584Z,34.82
2018-12-15T20:58:45.940Z,34.79
2018-12-15T21:01:12.366Z,34.79
2018-12-15T21:03:38.652Z,34.76
2018-12-15T21:06:05.051Z,34.78
2018-12-15T21:08:31.387Z,34.91
2018-12-15T21:10:57.770Z,34.78
2018-12-15T21:13:24.104Z,34.78
2018-12-15T21:15:50.488Z,34.88
2018-12-15T21:18:17.132Z,34.81
2018-12-15T21:20:43.474Z,34.97
2018-12-15T21:23:09.866Z,35.09
2018-12-15T21:25:36.198Z,35.13
2018-12-15T21:28:02.577Z,35.37
2018-12-15T21:30:28.975Z,35.30
2018-12-15T21:32:55.317Z,35.38
2018-12-15T21:35:21.810Z,35.20
2018-12-15T21:37:48.072Z,35.11
2018-12-15T21:40:14.400Z,35.27
2018-12-15T21:42:40.765Z,35.22
2018-12-15T21:45:07.112Z,35.35
2018-12-15T21:47:33.539Z,35.36
2018-12-15T21:49:59.911Z,35.32
2018-12-15T21:52:26.204Z,35.32
2018-12-15T21:54:52.591Z,35.34
2018-12-15T21:57:18.972Z,35.41
2018-12-15T21:59:45.362Z,35.18
2018-12-15T22:02:11.692Z,35.32
2018-12-15T22:04:38.077Z,35.32
2018-12-15T22:07:04.529Z,35.27
2018-12-15T22:09:30.897Z,35.29
2018-12-15T22:11:57.302Z,35.38
2018-12-15T22:14:23.632Z,35.39
2018-12-15T22:16:50.007Z,35.40
2018-12-15T22:19:16.409Z,35.49
2018-12-15T22:21:42.805Z,35.36
2018-12-15T22:24:09.215Z,35.29
2018-12-15T22:26:35.584Z,35.39
2018-12-15T22:29:01.979Z,35.43
2018-12-15T22:31:28.450Z,35.39
2018-12-15T22:33:54.890Z,35.39
2018-12-15T22:36:21.283Z,35.42
2018-12-15T22:38:47.638Z,35.32
2018-12-15T22:41:13.980Z,35.38
2018-12-15T22:43:40.352Z,35.41
2018-12-15T22:46:06.661Z,35.48
2018-12-15T22:48:33.154Z,35.42
2018-12-15T22:50:59.525Z,35.48
2018-12-15T22:53:25.941Z,35.53
2018-12-15T22:55:52.273Z,35.39
2018-12-15T22:58:18.593Z,35.53
2018-12-15T23:00:45.016Z,35.34
2018-12-15T23:03:11.403Z,35.42
2018-12-15T23:05:37.862Z,35.53
2018-12-15T23:08:04.193Z,35.64
2018-12-15T23:10:30.578Z,35.60
2018-12-15T23:12:56.908Z,35.42
2018-12-15T23:15:23.292Z,35.65
2018-12-15T23:17:49.737Z,35.54
2018-12-15T23:20:16.168Z,35.58
2018-12-15T23:22:42.503Z,35.67
2018-12-15T23:25:08.888Z,35.69
2018-12-15T23:27:35.263Z,35.70
2018-12-15T23:30:01.648Z,35.77
2018-12-15T23:32:27.960Z,35.77
2018-12-15T23:34:54.303Z,35.93
2018-12-15T23:37:20.736Z,35.71
2018-12-15T23:39:47.099Z,35.77
2018-12-15T23:42:13.425Z,35.88
2018-12-15T23:44:39.802Z,36.00
2018-12-15T23:47:06.131Z,35.95
2018-12-15T23:49:32.524Z,36.01
2018-12-15T23:51:58.887Z,36.06
2018-12-15T23:54:25.288Z,36.11
2018-12-15T23:56:51.637Z,36.03
2018-12-15T23:59:18.080Z,36.12
